Time;durP1;ratioP1;P1;durP2;ratioP2;P2;SDS_P1;SDS_P2;PMS_P1;PMS_P2;Temp;Humidity;BMP_temperature;BMP_pressure;BME280_temperature;BME280_humidity;BME280_pressure;Samples;Min_cycle;Max_cycle;Signal;HPM_P1;HPM_P2
2023/04/22 00:00:19;;;;;;;;;;;;;;;15.71;nan;101679.69;5052077;28;19924;-87
2023/04/22 00:02:45;;;;;;;;;;;;;;;15.67;nan;101673.19;5055377;28;20036;-84
2023/04/22 00:05:12;;;;;;;;;;;;;;;15.62;nan;101678.56;5056039;28;19924;-84
2023/04/22 00:07:38;;;;;;;;;;;;;;;15.56;nan;101672.25;5058503;28;19931;-86
2023/04/22 00:10:04;;;;;;;;;;;;;;;15.51;nan;101674.91;5057145;28;19917;-84
2023/04/22 00:12:29;;;;;;;;;;;;;;;15.48;nan;101674.63;5058663;28;19947;-86
2023/04/22 00:14:55;;;;;;;;;;;;;;;15.47;nan;101673.00;5054850;28;20054;-85
2023/04/22 00:17:20;;;;;;;;;;;;;;;15.46;nan;101665.97;5053501;28;19917;-87
2023/04/22 00:19:46;;;;;;;;;;;;;;;15.43;nan;101672.69;5055850;28;19920;-84
2023/04/22 00:22:11;;;;;;;;;;;;;;;15.39;nan;101667.00;5059356;28;19928;-84
2023/04/22 00:24:37;;;;;;;;;;;;;;;15.37;nan;101661.03;5060853;28;20508;-84
2023/04/22 00:27:02;;;;;;;;;;;;;;;15.35;nan;101667.75;5053259;28;19916;-85
2023/04/22 00:29:28;;;;;;;;;;;;;;;15.32;nan;101669.09;5055520;28;19924;-86
2023/04/22 00:31:53;;;;;;;;;;;;;;;15.30;nan;101659.63;5054307;28;20424;-84
2023/04/22 00:34:19;;;;;;;;;;;;;;;15.27;nan;101658.25;5058697;28;20398;-84
2023/04/22 00:36:45;;;;;;;;;;;;;;;15.23;nan;101662.53;5053578;28;19921;-84
2023/04/22 00:39:10;;;;;;;;;;;;;;;15.17;nan;101658.16;5054176;28;19947;-86
2023/04/22 00:41:36;;;;;;;;;;;;;;;15.13;nan;101651.66;5052905;28;20333;-84
2023/04/22 00:44:02;;;;;;;;;;;;;;;15.07;nan;101644.56;5056317;28;19927;-84
2023/04/22 00:46:27;;;;;;;;;;;;;;;15.03;nan;101646.97;5056033;28;19923;-87
2023/04/22 00:48:53;;;;;;;;;;;;;;;14.98;nan;101652.31;5056955;28;20144;-84
2023/04/22 00:51:18;;;;;;;;;;;;;;;14.91;nan;101646.31;5060454;28;19955;-84
2023/04/22 00:53:43;;;;;;;;;;;;;;;14.87;nan;101642.47;5058426;28;20017;-84
2023/04/22 00:56:10;;;;;;;;;;;;;;;14.85;nan;101641.13;5059785;28;20587;-85
2023/04/22 00:58:35;;;;;;;;;;;;;;;14.81;nan;101646.22;5060557;28;20289;-85
2023/04/22 01:01:01;;;;;;;;;;;;;;;14.78;nan;101644.84;5057555;28;20401;-84
2023/04/22 01:03:27;;;;;;;;;;;;;;;14.76;nan;101652.38;5060210;28;20332;-84
2023/04/22 01:05:52;;;;;;;;;;;;;;;14.73;nan;101647.50;5057394;28;20298;-85
2023/04/22 01:08:18;;;;;;;;;;;;;;;14.69;nan;101646.34;5063428;28;19931;-84
2023/04/22 01:10:43;;;;;;;;;;;;;;;14.63;nan;101644.66;5059761;28;19925;-85
2023/04/22 01:13:08;;;;;;;;;;;;;;;14.60;nan;101644.38;5059594;28;19927;-84
2023/04/22 01:15:34;;;;;;;;;;;;;;;14.55;nan;101649.72;5062036;28;20374;-86
2023/04/22 01:18:00;;;;;;;;;;;;;;;14.52;nan;101648.31;5058727;28;19921;-84
2023/04/22 01:20:28;;;;;;;;;;;;;;;14.51;nan;101652.06;5062015;28;19923;-83
2023/04/22 01:22:55;;;;;;;;;;;;;;;14.47;nan;101653.66;5058382;28;19948;-84
2023/04/22 01:25:20;;;;;;;;;;;;;;;14.45;nan;101647.69;5059635;28;19920;-84
2023/04/22 01:27:46;;;;;;;;;;;;;;;14.41;nan;101646.56;5054694;28;20466;-83
2023/04/22 01:30:11;;;;;;;;;;;;;;;14.36;nan;101649.16;5059497;28;20093;-84
2023/04/22 01:32:38;;;;;;;;;;;;;;;14.31;nan;101641.84;5058921;28;20266;-85
2023/04/22 01:35:03;;;;;;;;;;;;;;;14.27;nan;101638.03;5053300;28;19931;-85
2023/04/22 01:37:29;;;;;;;;;;;;;;;14.21;nan;101645.25;5059536;28;19916;-84
2023/04/22 01:39:56;;;;;;;;;;;;;;;14.17;nan;101645.97;5058129;28;19926;-84
2023/04/22 01:42:21;;;;;;;;;;;;;;;14.14;nan;101644.59;5058486;28;19924;-86
2023/04/22 01:44:47;;;;;;;;;;;;;;;14.12;nan;101640.50;5058951;28;19940;-85
2023/04/22 01:47:12;;;;;;;;;;;;;;;14.10;nan;101637.25;5060040;28;20389;-84
2023/04/22 01:49:37;;;;;;;;;;;;;;;14.09;nan;101641.84;5057687;28;20002;-85
2023/04/22 01:52:03;;;;;;;;;;;;;;;14.09;nan;101630.25;5057302;28;19921;-83
2023/04/22 01:54:28;;;;;;;;;;;;;;;14.04;nan;101614.84;5061103;28;19916;-86
2023/04/22 01:56:54;;;;;;;;;;;;;;;13.99;nan;101622.81;5055815;28;19921;-83
2023/04/22 01:59:20;;;;;;;;;;;;;;;13.94;nan;101620.06;5051831;28;19921;-84
2023/04/22 02:01:46;;;;;;;;;;;;;;;13.91;nan;101616.00;5057010;28;20039;-84
2023/04/22 02:04:11;;;;;;;;;;;;;;;13.89;nan;101620.81;5058521;28;20461;-83
2023/04/22 02:06:36;;;;;;;;;;;;;;;13.85;nan;101617.00;5056862;28;19917;-84
2023/04/22 02:09:02;;;;;;;;;;;;;;;13.82;nan;101611.28;5056877;28;20400;-84
2023/04/22 02:11:27;;;;;;;;;;;;;;;13.79;nan;101612.59;5057929;28;19916;-84
2023/04/22 02:13:53;;;;;;;;;;;;;;;13.76;nan;101604.19;5057733;28;19921;-84
2023/04/22 02:16:18;;;;;;;;;;;;;;;13.74;nan;101606.31;5058828;28;19978;-84
2023/04/22 02:18:44;;;;;;;;;;;;;;;13.71;nan;101607.66;5055994;28;19924;-84
2023/04/22 02:21:09;;;;;;;;;;;;;;;13.68;nan;101612.72;5056815;28;19973;-84
2023/04/22 02:23:35;;;;;;;;;;;;;;;13.67;nan;101595.75;5054332;28;19946;-85
2023/04/22 02:26:02;;;;;;;;;;;;;;;13.66;nan;101601.38;5056055;28;19946;-84
2023/04/22 02:28:27;;;;;;;;;;;;;;;13.63;nan;101596.47;5055852;28;19923;-84
2023/04/22 02:30:52;;;;;;;;;;;;;;;13.61;nan;101594.84;5053329;28;20000;-86
2023/04/22 02:33:18;;;;;;;;;;;;;;;13.60;nan;101597.78;5055994;28;20003;-83
2023/04/22 02:35:43;;;;;;;;;;;;;;;13.58;nan;101587.25;5054715;28;19921;-84
2023/04/22 02:38:09;;;;;;;;;;;;;;;13.54;nan;101586.13;5053848;28;19924;-84
2023/04/22 02:40:34;;;;;;;;;;;;;;;13.51;nan;101586.63;5053377;28;20385;-84
2023/04/22 02:43:00;;;;;;;;;;;;;;;13.47;nan;101582.81;5052310;28;20431;-84
2023/04/22 02:45:25;;;;;;;;;;;;;;;13.42;nan;101577.31;5058116;28;19921;-84
2023/04/22 02:47:50;;;;;;;;;;;;;;;13.36;nan;101583.69;5052387;28;19924;-84
2023/04/22 02:50:16;;;;;;;;;;;;;;;13.33;nan;101584.19;5051789;28;19943;-84
2023/04/22 02:52:41;;;;;;;;;;;;;;;13.30;nan;101582.81;5053089;28;19931;-84
2023/04/22 02:55:07;;;;;;;;;;;;;;;13.28;nan;101579.56;5054913;28;19924;-85
2023/04/22 02:57:32;;;;;;;;;;;;;;;13.18;nan;101579.38;5053713;28;19948;-86
2023/04/22 02:59:58;;;;;;;;;;;;;;;13.15;nan;101577.16;5057227;28;19924;-84
2023/04/22 03:02:23;;;;;;;;;;;;;;;13.16;nan;101575.28;5054164;28;19952;-84
2023/04/22 03:04:48;;;;;;;;;;;;;;;13.15;nan;101571.78;5055915;28;19924;-84
2023/04/22 03:07:14;;;;;;;;;;;;;;;13.12;nan;101568.78;5055831;28;19974;-84
2023/04/22 03:09:39;;;;;;;;;;;;;;;13.10;nan;101574.38;5055224;28;19920;-84
2023/04/22 03:12:04;;;;;;;;;;;;;;;13.08;nan;101570.28;5051490;28;19917;-84
2023/04/22 03:14:30;;;;;;;;;;;;;;;13.07;nan;101565.97;5051402;28;19920;-84
2023/04/22 03:16:56;;;;;;;;;;;;;;;13.03;nan;101568.34;5053803;28;19921;-84
2023/04/22 03:19:21;;;;;;;;;;;;;;;12.97;nan;101559.38;5055805;28;19925;-83
2023/04/22 03:21:46;;;;;;;;;;;;;;;12.92;nan;101563.84;5052627;28;19927;-84
2023/04/22 03:24:12;;;;;;;;;;;;;;;12.88;nan;101560.81;5054151;28;20011;-83
2023/04/22 03:26:37;;;;;;;;;;;;;;;12.82;nan;101556.44;5056434;28;20497;-84
2023/04/22 03:29:02;;;;;;;;;;;;;;;12.82;nan;101555.63;5056858;28;20389;-84
2023/04/22 03:31:28;;;;;;;;;;;;;;;12.81;nan;101557.50;5060897;28;20070;-84
2023/04/22 03:33:53;;;;;;;;;;;;;;;12.81;nan;101565.56;5055590;28;19971;-84
2023/04/22 03:36:18;;;;;;;;;;;;;;;12.81;nan;101562.06;5057952;28;19924;-83
2023/04/22 03:38:44;;;;;;;;;;;;;;;12.80;nan;101563.94;5055118;28;19924;-83
2023/04/22 03:41:09;;;;;;;;;;;;;;;12.78;nan;101560.69;5056802;28;19924;-84
2023/04/22 03:43:34;;;;;;;;;;;;;;;12.74;nan;101559.50;5055344;28;20543;-85
2023/04/22 03:46:00;;;;;;;;;;;;;;;12.73;nan;101559.75;5057994;28;20298;-84
2023/04/22 03:48:25;;;;;;;;;;;;;;;12.69;nan;101554.03;5055159;28;19920;-86
2023/04/22 03:50:50;;;;;;;;;;;;;;;12.66;nan;101563.41;5054963;28;19966;-84
2023/04/22 03:53:15;;;;;;;;;;;;;;;12.62;nan;101556.09;5056257;28;20940;-83
2023/04/22 03:55:41;;;;;;;;;;;;;;;12.60;nan;101553.63;5056315;28;19982;-86
2023/04/22 03:58:06;;;;;;;;;;;;;;;12.58;nan;101554.94;5056545;28;19920;-83
2023/04/22 04:00:32;;;;;;;;;;;;;;;12.53;nan;101554.84;5057249;28;19924;-85
2023/04/22 04:02:57;;;;;;;;;;;;;;;12.50;nan;101555.31;5056842;28;19932;-84
2023/04/22 04:05:23;;;;;;;;;;;;;;;12.49;nan;101556.38;5053762;28;19923;-86
2023/04/22 04:07:48;;;;;;;;;;;;;;;12.50;nan;101558.81;5056675;28;20022;-86
2023/04/22 04:10:14;;;;;;;;;;;;;;;12.51;nan;101559.63;5058676;28;20046;-84
2023/04/22 04:12:39;;;;;;;;;;;;;;;12.54;nan;101553.78;5056784;28;19916;-84
2023/04/22 04:15:05;;;;;;;;;;;;;;;12.57;nan;101556.81;5057980;28;19916;-84
2023/04/22 04:17:30;;;;;;;;;;;;;;;12.58;nan;101557.63;5060493;28;19927;-84
2023/04/22 04:19:55;;;;;;;;;;;;;;;12.56;nan;101551.66;5056097;28;19920;-83
2023/04/22 04:22:21;;;;;;;;;;;;;;;12.54;nan;101559.16;5055646;28;19920;-83
2023/04/22 04:24:46;;;;;;;;;;;;;;;12.52;nan;101555.88;5058288;28;19920;-84
2023/04/22 04:27:12;;;;;;;;;;;;;;;12.49;nan;101553.69;5052250;28;19916;-84
2023/04/22 04:29:38;;;;;;;;;;;;;;;12.50;nan;101552.63;5053989;28;19928;-84
2023/04/22 04:32:03;;;;;;;;;;;;;;;12.54;nan;101557.28;5057594;28;19959;-83
2023/04/22 04:34:30;;;;;;;;;;;;;;;12.59;nan;101561.94;5059165;28;19952;-84
2023/04/22 04:36:56;;;;;;;;;;;;;;;12.62;nan;101558.78;5055943;28;19954;-85
2023/04/22 04:39:22;;;;;;;;;;;;;;;12.64;nan;101560.16;5055489;28;19928;-83
2023/04/22 04:41:48;;;;;;;;;;;;;;;12.69;nan;101557.56;5054441;28;19924;-85
2023/04/22 04:44:14;;;;;;;;;;;;;;;12.75;nan;101555.78;5055361;28;19925;-83
2023/04/22 04:46:40;;;;;;;;;;;;;;;12.81;nan;101560.19;5055237;28;19920;-84
2023/04/22 04:49:06;;;;;;;;;;;;;;;12.87;nan;101553.81;5055307;28;19932;-83
2023/04/22 04:51:31;;;;;;;;;;;;;;;12.92;nan;101561.97;5058207;28;19916;-83
2023/04/22 04:53:57;;;;;;;;;;;;;;;12.99;nan;101567.22;5052243;28;19917;-84
2023/04/22 04:56:22;;;;;;;;;;;;;;;13.05;nan;101560.03;5054290;28;19920;-85
2023/04/22 04:58:48;;;;;;;;;;;;;;;13.11;nan;101567.13;5055346;28;19925;-85
2023/04/22 05:01:13;;;;;;;;;;;;;;;13.16;nan;101562.66;5055033;28;20548;-84
2023/04/22 05:03:38;;;;;;;;;;;;;;;13.26;nan;101564.69;5055947;28;19923;-84
2023/04/22 05:06:04;;;;;;;;;;;;;;;13.39;nan;101571.63;5053401;28;19940;-85
2023/04/22 05:08:29;;;;;;;;;;;;;;;13.50;nan;101568.84;5059095;28;20011;-85
2023/04/22 05:10:55;;;;;;;;;;;;;;;13.63;nan;101566.84;5055131;28;19920;-84
2023/04/22 05:13:21;;;;;;;;;;;;;;;13.74;nan;101569.44;5055742;28;19924;-84
2023/04/22 05:15:46;;;;;;;;;;;;;;;13.84;nan;101564.19;5056721;28;20376;-84
2023/04/22 05:18:12;;;;;;;;;;;;;;;13.97;nan;101573.75;5055074;28;19917;-84
2023/04/22 05:20:37;;;;;;;;;;;;;;;14.09;nan;101566.38;5054538;28;19925;-84
2023/04/22 05:23:02;;;;;;;;;;;;;;;14.22;nan;101570.59;5054121;28;19917;-84
2023/04/22 05:25:28;;;;;;;;;;;;;;;14.36;nan;101569.13;5057329;28;19931;-85
2023/04/22 05:27:53;;;;;;;;;;;;;;;14.49;nan;101562.53;5057847;28;19973;-84
2023/04/22 05:30:18;;;;;;;;;;;;;;;14.61;nan;101571.28;5056470;28;19920;-84
2023/04/22 05:32:44;;;;;;;;;;;;;;;14.75;nan;101564.44;5052391;28;20294;-84
2023/04/22 05:35:09;;;;;;;;;;;;;;;14.90;nan;101561.06;5057430;28;20521;-84
2023/04/22 05:37:34;;;;;;;;;;;;;;;15.01;nan;101557.34;5055641;28;19917;-84
2023/04/22 05:40:00;;;;;;;;;;;;;;;15.15;nan;101557.72;5056961;28;19935;-86
2023/04/22 05:42:25;;;;;;;;;;;;;;;15.27;nan;101552.16;5055107;28;19924;-84
2023/04/22 05:44:50;;;;;;;;;;;;;;;15.39;nan;101548.16;5056023;28;20295;-85
2023/04/22 05:47:16;;;;;;;;;;;;;;;15.53;nan;101553.13;5059949;28;20331;-84
2023/04/22 05:49:41;;;;;;;;;;;;;;;15.65;nan;101548.38;5056232;28;20040;-84
2023/04/22 05:52:06;;;;;;;;;;;;;;;15.79;nan;101546.78;5058057;28;20401;-84
2023/04/22 05:54:32;;;;;;;;;;;;;;;15.95;nan;101544.97;5055432;28;20393;-84
2023/04/22 05:56:57;;;;;;;;;;;;;;;16.10;nan;101555.03;5057094;28;20406;-84
2023/04/22 05:59:22;;;;;;;;;;;;;;;16.25;nan;101555.91;5055348;28;20740;-84
2023/04/22 06:01:48;;;;;;;;;;;;;;;16.40;nan;101555.13;5054498;28;19924;-86
2023/04/22 06:04:14;;;;;;;;;;;;;;;16.56;nan;101551.38;5053861;28;19916;-84
2023/04/22 06:06:39;;;;;;;;;;;;;;;16.71;nan;101549.81;5055947;28;19969;-86
2023/04/22 06:09:06;;;;;;;;;;;;;;;16.87;nan;101543.28;5053680;28;19917;-84
2023/04/22 06:11:31;;;;;;;;;;;;;;;17.01;nan;101543.56;5057764;28;20398;-84
2023/04/22 06:13:57;;;;;;;;;;;;;;;17.18;nan;101542.19;5054408;28;19943;-85
2023/04/22 06:16:22;;;;;;;;;;;;;;;17.35;nan;101547.31;5058194;28;19966;-84
2023/04/22 06:18:47;;;;;;;;;;;;;;;17.51;nan;101556.22;5055120;28;19973;-85
2023/04/22 06:21:13;;;;;;;;;;;;;;;17.63;nan;101558.66;5056552;28;19922;-85
2023/04/22 06:23:38;;;;;;;;;;;;;;;17.76;nan;101545.34;5053083;28;19917;-85
2023/04/22 06:26:03;;;;;;;;;;;;;;;17.89;nan;101554.78;5053727;28;20163;-84
2023/04/22 06:28:29;;;;;;;;;;;;;;;18.01;nan;101546.34;5050566;28;19916;-84
2023/04/22 06:30:54;;;;;;;;;;;;;;;18.14;nan;101548.47;5048285;28;20007;-84
2023/04/22 06:33:19;;;;;;;;;;;;;;;18.26;nan;101554.34;5049292;28;19931;-85
2023/04/22 06:35:45;;;;;;;;;;;;;;;18.36;nan;101540.72;5058184;28;20120;-85
2023/04/22 06:38:10;;;;;;;;;;;;;;;18.50;nan;101545.53;5053538;28;19971;-85
2023/04/22 06:40:36;;;;;;;;;;;;;;;18.62;nan;101540.53;5053570;28;19917;-86
2023/04/22 06:43:01;;;;;;;;;;;;;;;18.72;nan;101540.50;5054966;28;20405;-86
2023/04/22 06:45:26;;;;;;;;;;;;;;;18.84;nan;101534.69;5058725;28;20376;-84
2023/04/22 06:47:54;;;;;;;;;;;;;;;18.96;nan;101535.16;5052037;28;19917;-87
2023/04/22 06:50:20;;;;;;;;;;;;;;;19.05;nan;101525.31;5056480;28;20374;-86
2023/04/22 06:52:45;;;;;;;;;;;;;;;19.19;nan;101531.66;5054611;28;19969;-85
2023/04/22 06:55:11;;;;;;;;;;;;;;;19.37;nan;101523.88;5057063;28;20134;-86
2023/04/22 06:57:36;;;;;;;;;;;;;;;19.54;nan;101524.28;5052765;28;20471;-85
2023/04/22 07:00:03;;;;;;;;;;;;;;;19.72;nan;101533.59;5053726;28;19986;-86
2023/04/22 07:02:28;;;;;;;;;;;;;;;19.85;nan;101530.97;5055884;28;19924;-84
2023/04/22 07:04:53;;;;;;;;;;;;;;;19.98;nan;101537.63;5055631;28;20438;-86
2023/04/22 07:07:19;;;;;;;;;;;;;;;20.14;nan;101525.44;5054269;28;19930;-86
2023/04/22 07:09:44;;;;;;;;;;;;;;;20.30;nan;101519.78;5056286;28;19920;-86
2023/04/22 07:12:10;;;;;;;;;;;;;;;20.47;nan;101525.53;5056682;28;20011;-88
2023/04/22 07:14:35;;;;;;;;;;;;;;;20.57;nan;101508.22;5054733;28;19967;-85
2023/04/22 07:17:01;;;;;;;;;;;;;;;20.71;nan;101509.91;5061022;28;20141;-85
2023/04/22 07:19:26;;;;;;;;;;;;;;;20.89;nan;101510.16;5053542;28;19924;-86
2023/04/22 07:21:52;;;;;;;;;;;;;;;21.05;nan;101506.06;5056322;28;19931;-85
2023/04/22 07:24:17;;;;;;;;;;;;;;;21.23;nan;101513.34;5054725;28;19978;-85
2023/04/22 07:26:43;;;;;;;;;;;;;;;21.39;nan;101509.25;5059252;28;19924;-85
2023/04/22 07:29:08;;;;;;;;;;;;;;;21.51;nan;101507.94;5054874;28;20374;-85
2023/04/22 07:31:34;;;;;;;;;;;;;;;21.65;nan;101503.28;5061370;28;19989;-87
2023/04/22 07:34:00;;;;;;;;;;;;;;;21.77;nan;101505.50;5057369;28;20010;-85
2023/04/22 07:36:25;;;;;;;;;;;;;;;21.89;nan;101505.78;5063008;28;20010;-86
2023/04/22 07:38:50;;;;;;;;;;;;;;;22.02;nan;101507.69;5058558;28;19967;-85
2023/04/22 07:41:16;;;;;;;;;;;;;;;22.01;nan;101512.34;5062317;28;19924;-88
2023/04/22 07:43:41;;;;;;;;;;;;;;;22.05;nan;101511.75;5055977;28;19924;-85
2023/04/22 07:46:06;;;;;;;;;;;;;;;22.11;nan;101505.88;5065444;28;19916;-85
2023/04/22 07:48:32;;;;;;;;;;;;;;;22.14;nan;101510.72;5063945;28;19916;-85
2023/04/22 07:50:57;;;;;;;;;;;;;;;22.21;nan;101511.09;5070432;28;20112;-84
2023/04/22 07:53:22;;;;;;;;;;;;;;;22.26;nan;101504.72;5058282;28;19928;-86
2023/04/22 07:55:48;;;;;;;;;;;;;;;22.32;nan;101506.22;5056206;28;19916;-85
2023/04/22 07:58:14;;;;;;;;;;;;;;;22.43;nan;101504.03;5054424;28;20509;-85
2023/04/22 08:00:39;;;;;;;;;;;;;;;22.61;nan;101505.78;5053289;28;19980;-87
2023/04/22 08:03:07;;;;;;;;;;;;;;;22.77;nan;101498.03;5049090;28;19921;-87
2023/04/22 08:05:32;;;;;;;;;;;;;;;22.86;nan;101496.19;5055869;28;19924;-88
2023/04/22 08:07:58;;;;;;;;;;;;;;;22.98;nan;101493.72;5056528;28;20259;-90
2023/04/22 08:10:23;;;;;;;;;;;;;;;23.11;nan;101490.06;5060101;28;20698;-88
2023/04/22 08:12:48;;;;;;;;;;;;;;;23.25;nan;101487.22;5055687;28;20250;-86
2023/04/22 08:15:14;;;;;;;;;;;;;;;23.40;nan;101486.81;5057449;28;19927;-87
2023/04/22 08:17:39;;;;;;;;;;;;;;;23.47;nan;101491.81;5057452;28;19924;-88
2023/04/22 08:20:05;;;;;;;;;;;;;;;23.59;nan;101485.75;5054930;28;19990;-86
2023/04/22 08:22:32;;;;;;;;;;;;;;;23.74;nan;101485.31;5056794;28;20282;-88
2023/04/22 08:24:57;;;;;;;;;;;;;;;23.88;nan;101486.00;5056702;28;20414;-87
2023/04/22 08:27:23;;;;;;;;;;;;;;;24.07;nan;101478.28;5053806;28;20123;-85
2023/04/22 08:29:48;;;;;;;;;;;;;;;24.17;nan;101479.88;5056676;28;20385;-86
2023/04/22 08:32:14;;;;;;;;;;;;;;;24.33;nan;101472.81;5054762;28;19916;-86
2023/04/22 08:34:39;;;;;;;;;;;;;;;24.54;nan;101472.97;5051554;28;20517;-88
2023/04/22 08:37:04;;;;;;;;;;;;;;;24.74;nan;101479.69;5055664;28;19928;-85
2023/04/22 08:39:30;;;;;;;;;;;;;;;24.90;nan;101472.56;5053092;28;19929;-89
2023/04/22 08:41:56;;;;;;;;;;;;;;;25.05;nan;101460.28;5057437;28;19917;-85
2023/04/22 08:44:22;;;;;;;;;;;;;;;25.22;nan;101462.94;5066064;28;19932;-86
2023/04/22 08:46:48;;;;;;;;;;;;;;;25.38;nan;101463.19;5056931;28;19920;-86
2023/04/22 08:49:17;;;;;;;;;;;;;;;25.49;nan;101467.16;5055762;28;19923;-86
2023/04/22 08:51:43;;;;;;;;;;;;;;;25.61;nan;101458.22;5063878;28;19927;-86
2023/04/22 08:54:09;;;;;;;;;;;;;;;25.75;nan;101458.00;5065999;28;19916;-87
2023/04/22 08:56:35;;;;;;;;;;;;;;;25.86;nan;101459.22;5065285;28;19923;-87
2023/04/22 08:59:01;;;;;;;;;;;;;;;25.90;nan;101460.16;5056122;28;19924;-87
2023/04/22 09:01:28;;;;;;;;;;;;;;;26.00;nan;101457.00;5055541;28;19920;-86
2023/04/22 09:03:56;;;;;;;;;;;;;;;26.06;nan;101457.63;5054748;28;20437;-87
2023/04/22 09:06:22;;;;;;;;;;;;;;;26.18;nan;101450.22;5059378;28;19949;-86
2023/04/22 09:08:49;;;;;;;;;;;;;;;26.25;nan;101443.41;5055345;28;21399;-86
2023/04/22 09:11:15;;;;;;;;;;;;;;;26.38;nan;101439.56;5054691;28;20023;-85
2023/04/22 09:13:41;;;;;;;;;;;;;;;26.53;nan;101447.19;5055422;28;20445;-86
2023/04/22 09:16:06;;;;;;;;;;;;;;;26.70;nan;101444.25;5058339;28;19982;-86
2023/04/22 09:18:38;;;;;;;;;;;;;;;26.86;nan;101436.16;5056896;28;20397;-87
2023/04/22 09:21:04;;;;;;;;;;;;;;;27.02;nan;101433.56;5053134;28;20404;-86
2023/04/22 09:23:29;;;;;;;;;;;;;;;27.08;nan;101432.97;5053685;28;19921;-88
2023/04/22 09:25:56;;;;;;;;;;;;;;;27.06;nan;101432.53;5049310;28;20443;-87
2023/04/22 09:28:21;;;;;;;;;;;;;;;27.05;nan;101427.38;5055323;28;19990;-88
2023/04/22 09:30:47;;;;;;;;;;;;;;;27.12;nan;101424.06;5055324;28;19924;-87
2023/04/22 09:33:12;;;;;;;;;;;;;;;27.19;nan;101427.03;5056012;28;19920;-88
2023/04/22 09:35:39;;;;;;;;;;;;;;;27.32;nan;101421.19;5054058;28;19970;-89
2023/04/22 09:38:06;;;;;;;;;;;;;;;27.51;nan;101414.28;5056805;28;20418;-88
2023/04/22 09:40:33;;;;;;;;;;;;;;;27.64;nan;101421.38;5055142;28;20062;-88
2023/04/22 09:43:00;;;;;;;;;;;;;;;27.73;nan;101422.06;5056599;28;20349;-88
2023/04/22 09:45:27;;;;;;;;;;;;;;;27.72;nan;101414.97;5056649;28;19917;-89
2023/04/22 09:47:53;;;;;;;;;;;;;;;27.85;nan;101410.22;5054122;28;20019;-88
2023/04/22 09:50:19;;;;;;;;;;;;;;;28.05;nan;101408.44;5058967;28;19942;-87
2023/04/22 09:52:52;;;;;;;;;;;;;;;28.07;nan;101406.91;5057280;28;19928;-87
2023/04/22 09:55:19;;;;;;;;;;;;;;;28.10;nan;101406.22;5056893;28;19928;-86
2023/04/22 09:57:47;;;;;;;;;;;;;;;28.22;nan;101397.09;5054840;28;20481;-86
2023/04/22 10:00:13;;;;;;;;;;;;;;;28.34;nan;101397.06;5056459;28;19924;-87
2023/04/22 10:02:39;;;;;;;;;;;;;;;28.50;nan;101389.59;5060629;28;20393;-85
2023/04/22 10:05:04;;;;;;;;;;;;;;;28.68;nan;101387.31;5063115;28;19970;-86
2023/04/22 10:07:31;;;;;;;;;;;;;;;28.75;nan;101383.94;5068059;28;19928;-87
2023/04/22 10:09:56;;;;;;;;;;;;;;;28.76;nan;101388.31;5061133;28;20015;-86
2023/04/22 10:12:22;;;;;;;;;;;;;;;28.75;nan;101378.44;5062846;28;20461;-86
2023/04/22 10:14:47;;;;;;;;;;;;;;;28.74;nan;101385.91;5063134;28;19916;-84
2023/04/22 10:17:13;;;;;;;;;;;;;;;28.62;nan;101374.16;5062557;28;20306;-84
2023/04/22 10:19:39;;;;;;;;;;;;;;;28.57;nan;101372.47;5061187;28;19924;-84
2023/04/22 10:22:06;;;;;;;;;;;;;;;28.56;nan;101379.13;5062747;28;20003;-84
2023/04/22 10:24:36;;;;;;;;;;;;;;;28.69;nan;101368.81;5062333;28;19917;-85
2023/04/22 10:27:07;;;;;;;;;;;;;;;28.80;nan;101370.69;5064880;28;20059;-84
2023/04/22 10:29:39;;;;;;;;;;;;;;;28.87;nan;101370.06;5058586;28;21633;-86
2023/04/22 10:32:25;;;;;;;;;;;;;;;29.01;nan;101364.91;5062210;28;19925;-85
2023/04/22 10:35:06;;;;;;;;;;;;;;;29.05;nan;101368.53;5065665;28;21686;-84
2023/04/22 10:37:32;;;;;;;;;;;;;;;29.06;nan;101363.81;5069151;28;19928;-87
2023/04/22 10:40:06;;;;;;;;;;;;;;;29.05;nan;101360.25;5070125;28;19926;-84
2023/04/22 10:42:32;;;;;;;;;;;;;;;29.22;nan;101350.00;5069671;28;19963;-86
2023/04/22 10:45:01;;;;;;;;;;;;;;;29.24;nan;101350.44;5075888;28;19917;-87
2023/04/22 10:47:28;;;;;;;;;;;;;;;29.29;nan;101355.69;5085322;28;20267;-86
2023/04/22 10:50:12;;;;;;;;;;;;;;;29.35;nan;101348.72;5068403;28;19931;-87
2023/04/22 10:52:38;;;;;;;;;;;;;;;29.40;nan;101346.47;5079191;28;20073;-86
2023/04/22 10:55:04;;;;;;;;;;;;;;;29.55;nan;101339.31;5070471;28;19955;-86
2023/04/22 10:57:38;;;;;;;;;;;;;;;29.66;nan;101343.09;5065035;28;19921;-87
2023/04/22 11:00:16;;;;;;;;;;;;;;;29.60;nan;101343.75;5065296;28;20609;-88
2023/04/22 11:02:43;;;;;;;;;;;;;;;29.59;nan;101342.16;5053952;28;19925;-87
2023/04/22 11:05:25;;;;;;;;;;;;;;;29.62;nan;101347.72;5062268;28;19920;-86
2023/04/22 11:08:03;;;;;;;;;;;;;;;29.68;nan;101340.78;5060671;28;20461;-85
2023/04/22 11:10:46;;;;;;;;;;;;;;;29.85;nan;101327.69;5061086;28;19922;-82
2023/04/22 11:13:15;;;;;;;;;;;;;;;29.92;nan;101327.81;5060275;28;19920;-84
2023/04/22 11:15:44;;;;;;;;;;;;;;;29.97;nan;101325.53;5057880;28;21625;-85
2023/04/22 11:18:15;;;;;;;;;;;;;;;30.12;nan;101320.31;5062718;28;19921;-84
2023/04/22 11:20:41;;;;;;;;;;;;;;;30.18;nan;101316.91;5060820;28;19924;-84
2023/04/22 11:23:10;;;;;;;;;;;;;;;30.27;nan;101319.41;5059049;28;19947;-83
2023/04/22 11:25:48;;;;;;;;;;;;;;;30.28;nan;101307.97;5058285;28;19931;-84
2023/04/22 11:28:17;;;;;;;;;;;;;;;30.43;nan;101297.16;5063532;28;20279;-84
2023/04/22 11:30:42;;;;;;;;;;;;;;;30.42;nan;101301.09;5059965;28;19927;-85
2023/04/22 11:33:08;;;;;;;;;;;;;;;30.27;nan;101305.59;5061166;28;19916;-84
2023/04/22 11:35:38;;;;;;;;;;;;;;;30.27;nan;101306.38;5060258;28;19997;-86
2023/04/22 11:38:07;;;;;;;;;;;;;;;30.24;nan;101296.06;5066965;28;20013;-86
2023/04/22 11:40:50;;;;;;;;;;;;;;;30.29;nan;101304.03;5064446;28;19935;-86
2023/04/22 11:43:19;;;;;;;;;;;;;;;30.41;nan;101288.44;5061260;28;20002;-86
2023/04/22 11:45:44;;;;;;;;;;;;;;;30.40;nan;101287.66;5062578;28;19986;-86
2023/04/22 11:51:30;;;;;;;;;;;;;;;30.37;nan;101280.91;5056381;28;20209;-85
2023/04/22 11:54:12;;;;;;;;;;;;;;;;;;;;;
2023/04/22 11:56:41;;;;;;;;;;;;;;;30.60;nan;101278.09;5060950;28;19924;-86
2023/04/22 11:59:08;;;;;;;;;;;;;;;30.73;nan;101278.72;5054539;28;19925;-86
2023/04/22 12:01:44;;;;;;;;;;;;;;;;;;;;;
2023/04/22 12:04:33;;;;;;;;;;;;;;;30.78;nan;101280.38;5058166;28;20393;-85
2023/04/22 12:07:12;;;;;;;;;;;;;;;30.86;nan;101277.31;5061545;28;20017;-85
2023/04/22 12:10:32;;;;;;;;;;;;;;;;;;;;;
2023/04/22 12:13:15;;;;;;;;;;;;;;;31.08;nan;101266.56;4994648;28;19921;-86
2023/04/22 12:18:46;;;;;;;;;;;;;;;30.88;nan;101274.16;5050413;28;19929;-85
2023/04/22 12:21:27;;;;;;;;;;;;;;;30.79;nan;101273.66;5058086;28;19917;-85
2023/04/22 12:24:29;;;;;;;;;;;;;;;30.80;nan;101262.22;5063791;28;19929;-87
2023/04/22 12:26:54;;;;;;;;;;;;;;;30.86;nan;101254.38;5056215;28;19974;-86
2023/04/22 12:29:47;;;;;;;;;;;;;;;30.99;nan;101253.00;5058173;28;19920;-85
2023/04/22 12:32:12;;;;;;;;;;;;;;;30.90;nan;101242.22;5060019;28;20826;-85
2023/04/22 12:34:46;;;;;;;;;;;;;;;30.93;nan;101248.97;5054582;28;19924;-85
2023/04/22 12:37:46;;;;;;;;;;;;;;;30.95;nan;101246.63;5056246;28;19920;-86
2023/04/22 12:40:27;;;;;;;;;;;;;;;31.06;nan;101241.22;5054528;28;19978;-86
2023/04/22 12:43:04;;;;;;;;;;;;;;;31.06;nan;101242.03;5059068;28;20421;-86
2023/04/22 12:45:33;;;;;;;;;;;;;;;30.83;nan;101239.34;5059471;28;19917;-84
2023/04/22 12:47:58;;;;;;;;;;;;;;;30.81;nan;101240.88;5061716;28;19917;-85
2023/04/22 12:50:24;;;;;;;;;;;;;;;30.95;nan;101230.03;5064134;28;19923;-84
2023/04/22 12:52:59;;;;;;;;;;;;;;;31.12;nan;101228.66;5064543;28;19947;-84
2023/04/22 12:55:30;;;;;;;;;;;;;;;31.42;nan;101225.84;5059755;28;20316;-85
2023/04/22 12:58:14;;;;;;;;;;;;;;;31.49;nan;101220.41;5059734;28;20377;-85
2023/04/22 13:00:39;;;;;;;;;;;;;;;31.46;nan;101212.88;5060509;28;20012;-86
2023/04/22 13:03:14;;;;;;;;;;;;;;;31.45;nan;101216.81;5065017;28;20050;-86
2023/04/22 13:05:53;;;;;;;;;;;;;;;31.45;nan;101220.38;5061835;28;20488;-85